Time;durP1;ratioP1;P1;durP2;ratioP2;P2;SDS_P1;SDS_P2;PMS_P1;PMS_P2;Temp;Humidity;BMP_temperature;BMP_pressure;BME280_temperature;BME280_humidity;BME280_pressure;Samples;Min_cycle;Max_cycle;Signal;HPM_P1;HPM_P2
2021/08/12 00:02:02;;;;;;;42.90;28.15;;;;;;;;;;4332272;33;20685;-79
2021/08/12 00:04:29;;;;;;;33.42;23.95;;;;;;;;;;4339006;33;20143;-80
2021/08/12 00:06:54;;;;;;;32.38;24.02;;;;;;;;;;4331770;33;20156;-79
2021/08/12 00:09:19;;;;;;;39.58;27.17;;;;;;;;;;4343901;33;20176;-79
2021/08/12 00:11:52;;;;;;;35.33;26.20;;;;;;;;;;4340359;33;20186;-79
2021/08/12 00:14:17;;;;;;;34.83;23.90;;;;;;;;;;4334572;33;20182;-79
2021/08/12 00:16:43;;;;;;;45.10;29.15;;;;;;;;;;4343330;33;20156;-79
2021/08/12 00:19:14;;;;;;;45.12;30.58;;;;;;;;;;4331376;33;20190;-80
2021/08/12 00:21:40;;;;;;;42.10;27.25;;;;;;;;;;4331689;33;20222;-79
2021/08/12 00:24:06;;;;;;;44.40;29.87;;;;;;;;;;4341883;33;20170;-80
2021/08/12 00:26:31;;;;;;;42.35;29.60;;;;;;;;;;4332302;33;20254;-81
2021/08/12 00:28:56;;;;;;;47.83;32.15;;;;;;;;;;4332089;33;20190;-80
2021/08/12 00:31:21;;;;;;;49.65;32.53;;;;;;;;;;4331066;33;20577;-80
2021/08/12 00:33:47;;;;;;;48.03;31.55;;;;;;;;;;4331555;33;20616;-79
2021/08/12 00:36:12;;;;;;;49.78;33.30;;;;;;;;;;4342420;33;20163;-79
2021/08/12 00:38:37;;;;;;;44.25;30.17;;;;;;;;;;4345809;33;20579;-79
2021/08/12 00:41:02;;;;;;;48.30;31.05;;;;;;;;;;4343827;33;20156;-79
2021/08/12 00:43:28;;;;;;;51.03;32.10;;;;;;;;;;4330976;33;20275;-80
2021/08/12 00:45:53;;;;;;;50.12;33.10;;;;;;;;;;4332415;33;20140;-79
2021/08/12 00:48:18;;;;;;;45.92;29.48;;;;;;;;;;4338482;33;20546;-79
2021/08/12 00:50:45;;;;;;;49.13;31.90;;;;;;;;;;4348662;33;20189;-79
2021/08/12 00:53:10;;;;;;;50.45;31.85;;;;;;;;;;4347854;33;20682;-79
2021/08/12 00:55:37;;;;;;;50.60;32.75;;;;;;;;;;4345586;33;20159;-79
2021/08/12 00:58:02;;;;;;;56.72;33.92;;;;;;;;;;4348331;33;20541;-79
2021/08/12 01:00:27;;;;;;;54.08;35.08;;;;;;;;;;4348190;33;20182;-79
2021/08/12 01:02:53;;;;;;;48.65;33.13;;;;;;;;;;4347437;32;20440;-79
2021/08/12 01:05:18;;;;;;;47.15;30.98;;;;;;;;;;4333468;33;20541;-79
2021/08/12 01:07:49;;;;;;;54.90;37.28;;;;;;;;;;4333399;33;20513;-79
2021/08/12 01:10:18;;;;;;;48.72;31.48;;;;;;;;;;4333401;33;20159;-79
2021/08/12 01:12:52;;;;;;;49.80;32.63;;;;;;;;;;4346271;32;20159;-79
2021/08/12 01:15:22;;;;;;;44.72;33.15;;;;;;;;;;4348277;32;20162;-79
2021/08/12 01:17:49;;;;;;;42.45;30.23;;;;;;;;;;4348422;33;20151;-79
2021/08/12 01:20:41;;;;;;;49.28;34.83;;;;;;;;;;4348203;33;20222;-79
2021/08/12 01:23:10;;;;;;;47.20;29.45;;;;;;;;;;4340994;33;20601;-80
2021/08/12 01:25:36;;;;;;;43.65;30.67;;;;;;;;;;4344643;33;20514;-81
2021/08/12 01:28:12;;;;;;;45.67;30.27;;;;;;;;;;4359756;33;20194;-80
2021/08/12 01:30:57;;;;;;;53.22;35.40;;;;;;;;;;4360448;32;20201;-81
2021/08/12 01:33:55;;;;;;;48.78;33.70;;;;;;;;;;4336090;33;20209;-80
2021/08/12 01:36:22;;;;;;;49.03;33.92;;;;;;;;;;4321322;33;20665;-80
2021/08/12 01:38:48;;;;;;;54.40;35.00;;;;;;;;;;4332848;33;20191;-80
2021/08/12 01:41:15;;;;;;;53.17;33.88;;;;;;;;;;4348760;33;20311;-80
2021/08/12 01:43:40;;;;;;;52.53;36.08;;;;;;;;;;4338889;33;20171;-81
2021/08/12 01:46:06;;;;;;;55.63;36.30;;;;;;;;;;4332946;33;20159;-80
2021/08/12 01:48:32;;;;;;;50.83;35.33;;;;;;;;;;4341893;33;20226;-80
2021/08/12 01:51:05;;;;;;;56.70;36.28;;;;;;;;;;4330967;33;20175;-81
2021/08/12 01:53:31;;;;;;;45.58;30.48;;;;;;;;;;4344936;33;20151;-81
2021/08/12 01:55:57;;;;;;;51.08;35.67;;;;;;;;;;4343684;33;20163;-79
2021/08/12 01:58:24;;;;;;;49.88;34.33;;;;;;;;;;4345199;33;20291;-79
2021/08/12 02:00:51;;;;;;;51.25;34.97;;;;;;;;;;4344602;33;20163;-79
2021/08/12 02:03:17;;;;;;;65.55;39.92;;;;;;;;;;4339059;33;20170;-80
2021/08/12 02:05:44;;;;;;;59.50;38.75;;;;;;;;;;4330044;33;20529;-79
2021/08/12 02:08:09;;;;;;;66.68;45.15;;;;;;;;;;4330174;33;20156;-79
2021/08/12 02:10:35;;;;;;;60.53;40.58;;;;;;;;;;4343019;33;20504;-79
2021/08/12 02:13:01;;;;;;;62.85;41.22;;;;;;;;;;4344952;33;20535;-79
2021/08/12 02:15:27;;;;;;;62.28;40.70;;;;;;;;;;4344750;33;20190;-79
2021/08/12 02:17:55;;;;;;;62.75;42.75;;;;;;;;;;4330791;33;20168;-79
2021/08/12 02:20:26;;;;;;;63.35;41.03;;;;;;;;;;4329872;33;20188;-79
2021/08/12 02:22:55;;;;;;;61.47;41.83;;;;;;;;;;4341868;33;20763;-80
2021/08/12 02:25:39;;;;;;;64.47;43.65;;;;;;;;;;4333459;33;20156;-80
2021/08/12 02:28:07;;;;;;;65.87;40.85;;;;;;;;;;4329488;33;20167;-79
2021/08/12 02:30:39;;;;;;;62.35;41.40;;;;;;;;;;4330295;33;20203;-79
2021/08/12 02:33:09;;;;;;;62.40;39.33;;;;;;;;;;4329576;33;20202;-79
2021/08/12 02:35:37;;;;;;;62.78;41.28;;;;;;;;;;4330211;33;20164;-79
2021/08/12 02:38:03;;;;;;;59.92;41.35;;;;;;;;;;4330024;33;20164;-79
2021/08/12 02:40:30;;;;;;;57.08;36.92;;;;;;;;;;4338159;33;20221;-80
2021/08/12 02:42:55;;;;;;;59.45;41.08;;;;;;;;;;4339602;33;20186;-80
2021/08/12 02:45:21;;;;;;;60.72;41.47;;;;;;;;;;4329814;33;20191;-79
2021/08/12 02:47:48;;;;;;;65.82;41.95;;;;;;;;;;4338209;33;20589;-79
2021/08/12 02:50:13;;;;;;;64.75;43.50;;;;;;;;;;4344532;33;20229;-80
2021/08/12 02:52:42;;;;;;;69.07;43.67;;;;;;;;;;4344427;33;20493;-80
2021/08/12 02:55:08;;;;;;;58.42;38.83;;;;;;;;;;4339329;33;20163;-79
2021/08/12 02:57:35;;;;;;;76.87;48.47;;;;;;;;;;4345184;33;20178;-79
2021/08/12 03:00:01;;;;;;;63.87;42.70;;;;;;;;;;4344816;33;20163;-80
2021/08/12 03:02:27;;;;;;;75.68;49.70;;;;;;;;;;4347618;33;20537;-79
2021/08/12 03:04:54;;;;;;;78.12;49.55;;;;;;;;;;4347639;33;20513;-80
2021/08/12 03:07:19;;;;;;;70.10;45.92;;;;;;;;;;4348219;32;20492;-79
2021/08/12 03:09:47;;;;;;;68.57;44.85;;;;;;;;;;4340792;33;20227;-79
2021/08/12 03:12:12;;;;;;;73.20;46.35;;;;;;;;;;4347048;33;20217;-79
2021/08/12 03:14:38;;;;;;;62.78;40.40;;;;;;;;;;4348558;33;20136;-79
2021/08/12 03:17:03;;;;;;;91.05;53.50;;;;;;;;;;4347538;33;20159;-80
2021/08/12 03:19:29;;;;;;;85.07;51.88;;;;;;;;;;4347342;33;20163;-79
2021/08/12 03:21:58;;;;;;;84.30;52.50;;;;;;;;;;4335217;33;20473;-79
2021/08/12 03:24:23;;;;;;;81.55;50.75;;;;;;;;;;4344302;33;20718;-80
2021/08/12 03:26:52;;;;;;;91.05;54.25;;;;;;;;;;4344626;33;20163;-80
2021/08/12 03:29:18;;;;;;;94.30;55.33;;;;;;;;;;4347599;33;20202;-79
2021/08/12 03:31:43;;;;;;;99.05;57.97;;;;;;;;;;4342055;33;20602;-79
2021/08/12 03:34:08;;;;;;;94.85;54.33;;;;;;;;;;4342655;33;20494;-81
2021/08/12 03:36:33;;;;;;;84.62;50.67;;;;;;;;;;4344028;33;20227;-81
2021/08/12 03:38:58;;;;;;;91.60;56.05;;;;;;;;;;4333098;33;20510;-81
2021/08/12 03:41:24;;;;;;;97.50;54.83;;;;;;;;;;4331679;33;20573;-81
2021/08/12 03:43:49;;;;;;;96.95;55.25;;;;;;;;;;4336164;33;20167;-80
2021/08/12 03:46:14;;;;;;;94.60;58.63;;;;;;;;;;4347541;33;20155;-80
2021/08/12 03:48:40;;;;;;;108.18;59.83;;;;;;;;;;4342903;33;20159;-80
2021/08/12 03:51:05;;;;;;;97.93;55.95;;;;;;;;;;4331502;33;20262;-80
2021/08/12 03:53:30;;;;;;;92.18;56.70;;;;;;;;;;4344199;33;20171;-79
2021/08/12 03:56:00;;;;;;;85.43;53.22;;;;;;;;;;4339141;33;20160;-80
2021/08/12 03:58:25;;;;;;;93.05;55.97;;;;;;;;;;4331596;33;20198;-79
2021/08/12 04:00:50;;;;;;;86.55;54.83;;;;;;;;;;4333045;33;20589;-78
2021/08/12 04:03:16;;;;;;;80.68;48.03;;;;;;;;;;4343765;33;20175;-79
2021/08/12 04:05:41;;;;;;;85.12;51.10;;;;;;;;;;4332197;33;20195;-79
2021/08/12 04:08:06;;;;;;;80.28;48.08;;;;;;;;;;4335900;33;20247;-79
2021/08/12 04:10:32;;;;;;;82.95;51.35;;;;;;;;;;4338405;33;20510;-80
2021/08/12 04:12:57;;;;;;;87.85;52.03;;;;;;;;;;4334623;33;20609;-80
2021/08/12 04:15:22;;;;;;;88.57;51.92;;;;;;;;;;4358464;32;20230;-80
2021/08/12 04:17:48;;;;;;;78.18;48.85;;;;;;;;;;4344200;33;20151;-79
2021/08/12 04:20:13;;;;;;;80.87;48.72;;;;;;;;;;4331981;33;20222;-79
2021/08/12 04:22:41;;;;;;;83.68;49.38;;;;;;;;;;4333190;33;20263;-79
2021/08/12 04:25:06;;;;;;;65.30;40.75;;;;;;;;;;4338656;33;20477;-79
2021/08/12 04:27:32;;;;;;;77.07;47.30;;;;;;;;;;4346318;33;20222;-80
2021/08/12 04:29:57;;;;;;;83.37;45.53;;;;;;;;;;4346045;33;20162;-80
2021/08/12 04:32:22;;;;;;;72.53;46.22;;;;;;;;;;4346176;33;20194;-79
2021/08/12 04:34:47;;;;;;;73.43;46.83;;;;;;;;;;4345880;33;20214;-80
2021/08/12 04:37:16;;;;;;;68.53;44.05;;;;;;;;;;4334122;33;20873;-79
2021/08/12 04:39:41;;;;;;;71.12;43.60;;;;;;;;;;4331056;33;20190;-79
2021/08/12 04:42:09;;;;;;;66.45;43.13;;;;;;;;;;4333169;33;20148;-80
2021/08/12 04:44:35;;;;;;;66.47;42.30;;;;;;;;;;4345903;33;20160;-78
2021/08/12 04:47:00;;;;;;;69.15;42.03;;;;;;;;;;4345850;33;20213;-80
2021/08/12 04:49:25;;;;;;;68.60;42.90;;;;;;;;;;4345478;33;20175;-81
2021/08/12 04:51:50;;;;;;;70.78;42.00;;;;;;;;;;4345689;33;20210;-81
2021/08/12 04:54:16;;;;;;;68.87;42.67;;;;;;;;;;4341599;33;20190;-79
2021/08/12 04:56:42;;;;;;;69.95;41.78;;;;;;;;;;4342305;33;20195;-79
2021/08/12 04:59:07;;;;;;;66.72;39.10;;;;;;;;;;4346004;33;20152;-79
2021/08/12 05:01:32;;;;;;;73.53;43.50;;;;;;;;;;4345651;33;20171;-79
2021/08/12 05:03:57;;;;;;;65.82;40.30;;;;;;;;;;4346596;32;20177;-80
2021/08/12 05:06:23;;;;;;;72.60;44.80;;;;;;;;;;4344816;33;20163;-79
2021/08/12 05:08:48;;;;;;;77.22;43.72;;;;;;;;;;4345311;33;20159;-79
2021/08/12 05:11:13;;;;;;;66.82;40.33;;;;;;;;;;4345105;33;20167;-78
2021/08/12 05:13:39;;;;;;;62.88;39.78;;;;;;;;;;4346058;33;20206;-79
2021/08/12 05:16:04;;;;;;;70.65;38.08;;;;;;;;;;4345234;33;20229;-78
2021/08/12 05:18:29;;;;;;;58.75;37.05;;;;;;;;;;4346565;32;20131;-79
2021/08/12 05:20:55;;;;;;;66.35;40.70;;;;;;;;;;4345238;33;20156;-79
2021/08/12 05:23:20;;;;;;;65.85;40.42;;;;;;;;;;4344368;33;20229;-79
2021/08/12 05:25:45;;;;;;;69.62;42.47;;;;;;;;;;4336611;33;20661;-79
2021/08/12 05:28:11;;;;;;;68.53;38.80;;;;;;;;;;4330264;33;20266;-79
2021/08/12 05:30:39;;;;;;;64.50;39.55;;;;;;;;;;4355025;32;20159;-79
2021/08/12 05:33:04;;;;;;;60.50;34.63;;;;;;;;;;4333420;33;20156;-79
2021/08/12 05:35:30;;;;;;;60.88;38.35;;;;;;;;;;4335921;33;20205;-80
2021/08/12 05:37:55;;;;;;;68.05;41.67;;;;;;;;;;4331575;33;20163;-80
2021/08/12 05:40:20;;;;;;;59.78;37.38;;;;;;;;;;4330280;33;20458;-79
2021/08/12 05:42:45;;;;;;;67.35;40.28;;;;;;;;;;4339447;33;20216;-80
2021/08/12 05:45:11;;;;;;;66.07;39.03;;;;;;;;;;4346536;32;20203;-79
2021/08/12 05:47:38;;;;;;;60.35;35.60;;;;;;;;;;4330678;33;20174;-78
2021/08/12 05:50:03;;;;;;;60.50;35.75;;;;;;;;;;4340168;33;20172;-80
2021/08/12 05:52:29;;;;;;;63.47;39.22;;;;;;;;;;4345196;33;20155;-80
2021/08/12 05:54:54;;;;;;;60.88;35.47;;;;;;;;;;4344766;33;20163;-78
2021/08/12 05:57:19;;;;;;;63.17;38.58;;;;;;;;;;4345272;33;20167;-78
2021/08/12 05:59:44;;;;;;;70.82;40.78;;;;;;;;;;4346551;32;20136;-80
2021/08/12 06:02:10;;;;;;;62.10;37.20;;;;;;;;;;4346392;33;20135;-79
2021/08/12 06:04:35;;;;;;;70.70;40.22;;;;;;;;;;4343540;33;20159;-80
2021/08/12 06:07:00;;;;;;;75.25;43.92;;;;;;;;;;4344899;33;20267;-77
2021/08/12 06:09:25;;;;;;;64.18;38.40;;;;;;;;;;4344767;33;20194;-79
2021/08/12 06:11:51;;;;;;;68.32;41.20;;;;;;;;;;4356957;32;20336;-79
2021/08/12 06:14:16;;;;;;;73.40;44.08;;;;;;;;;;4344676;33;20615;-79
2021/08/12 06:16:41;;;;;;;69.97;40.17;;;;;;;;;;4356348;33;20596;-80
2021/08/12 06:19:07;;;;;;;71.70;39.60;;;;;;;;;;4344405;33;20160;-80
2021/08/12 06:21:32;;;;;;;69.22;42.60;;;;;;;;;;4356329;32;20189;-79
2021/08/12 06:23:57;;;;;;;68.12;38.50;;;;;;;;;;4356802;32;20186;-80
2021/08/12 06:26:22;;;;;;;72.07;36.28;;;;;;;;;;4356803;33;20171;-79
2021/08/12 06:28:49;;;;;;;62.90;36.85;;;;;;;;;;4344525;33;20180;-79
2021/08/12 06:31:15;;;;;;;63.53;37.85;;;;;;;;;;4344535;33;20164;-79
2021/08/12 06:33:40;;;;;;;65.57;36.67;;;;;;;;;;4341957;33;20198;-80
2021/08/12 06:36:05;;;;;;;57.17;34.53;;;;;;;;;;4329851;33;20225;-79
2021/08/12 06:38:31;;;;;;;58.33;33.65;;;;;;;;;;4332504;33;20684;-80
2021/08/12 06:40:57;;;;;;;60.42;33.20;;;;;;;;;;4343266;33;20175;-80
2021/08/12 06:43:23;;;;;;;52.17;30.58;;;;;;;;;;4337011;33;20164;-80
2021/08/12 06:45:48;;;;;;;47.30;28.27;;;;;;;;;;4330092;33;20547;-79
2021/08/12 06:48:13;;;;;;;44.85;26.90;;;;;;;;;;4341621;33;20563;-79
2021/08/12 06:50:38;;;;;;;45.25;24.48;;;;;;;;;;4341831;33;20251;-78
2021/08/12 06:53:04;;;;;;;44.40;25.37;;;;;;;;;;4329714;33;20187;-80
2021/08/12 06:55:32;;;;;;;36.53;21.50;;;;;;;;;;4338686;33;20227;-79
2021/08/12 06:57:58;;;;;;;38.75;20.73;;;;;;;;;;4342080;33;20164;-80
2021/08/12 07:00:23;;;;;;;34.95;19.87;;;;;;;;;;4353656;33;20155;-81
2021/08/12 07:02:48;;;;;;;31.77;18.23;;;;;;;;;;4337617;33;20171;-79
2021/08/12 07:05:15;;;;;;;29.20;17.12;;;;;;;;;;4344183;33;20159;-79
2021/08/12 07:07:40;;;;;;;26.25;16.87;;;;;;;;;;4330505;33;20295;-78
2021/08/12 07:10:06;;;;;;;32.30;17.55;;;;;;;;;;4331280;33;20140;-80
2021/08/12 07:12:32;;;;;;;23.83;14.57;;;;;;;;;;4329165;33;20534;-80
2021/08/12 07:15:00;;;;;;;24.02;15.95;;;;;;;;;;4329403;33;20190;-79
2021/08/12 07:17:28;;;;;;;20.73;13.88;;;;;;;;;;4342988;33;20243;-79
2021/08/12 07:19:53;;;;;;;21.00;13.23;;;;;;;;;;4356356;33;20182;-78
2021/08/12 07:22:19;;;;;;;18.80;12.40;;;;;;;;;;4341457;33;20176;-80
2021/08/12 07:24:44;;;;;;;24.25;13.23;;;;;;;;;;4332815;33;20155;-79
2021/08/12 07:27:09;;;;;;;18.20;10.35;;;;;;;;;;4329602;33;20160;-80
2021/08/12 07:29:34;;;;;;;13.85;8.90;;;;;;;;;;4329385;33;20210;-80
2021/08/12 07:31:59;;;;;;;14.95;9.18;;;;;;;;;;4333833;33;20167;-79
2021/08/12 07:34:25;;;;;;;18.12;9.18;;;;;;;;;;4341673;33;20202;-80
2021/08/12 07:36:50;;;;;;;12.32;7.75;;;;;;;;;;4333336;33;20175;-79
2021/08/12 07:39:15;;;;;;;12.23;8.23;;;;;;;;;;4333429;33;20163;-74
2021/08/12 07:41:41;;;;;;;14.27;7.35;;;;;;;;;;4333143;33;20206;-80
2021/08/12 07:44:06;;;;;;;12.35;7.00;;;;;;;;;;4356495;33;20182;-80
2021/08/12 07:46:32;;;;;;;13.05;7.60;;;;;;;;;;4356684;32;20640;-79
2021/08/12 07:48:57;;;;;;;12.18;6.32;;;;;;;;;;4349384;33;20128;-79
2021/08/12 07:51:23;;;;;;;9.85;6.75;;;;;;;;;;4342616;33;20190;-79
2021/08/12 07:53:59;;;;;;;11.40;6.85;;;;;;;;;;4357014;33;20185;-79
2021/08/12 07:56:24;;;;;;;10.23;6.40;;;;;;;;;;4359335;32;20151;-79
2021/08/12 07:58:53;;;;;;;11.55;6.10;;;;;;;;;;4350960;33;20189;-80
2021/08/12 08:01:21;;;;;;;11.82;6.60;;;;;;;;;;4346351;33;20291;-80
2021/08/12 08:03:51;;;;;;;9.63;5.95;;;;;;;;;;4358742;32;20163;-78
2021/08/12 08:06:16;;;;;;;11.27;7.03;;;;;;;;;;4360812;33;20238;-79
2021/08/12 08:08:41;;;;;;;10.77;6.30;;;;;;;;;;4358323;32;20667;-79
2021/08/12 08:11:07;;;;;;;7.90;5.57;;;;;;;;;;4339095;33;20242;-79
2021/08/12 08:13:32;;;;;;;8.35;5.18;;;;;;;;;;4348372;33;20193;-77
2021/08/12 08:15:58;;;;;;;7.60;4.47;;;;;;;;;;4347218;33;20278;-77
2021/08/12 08:18:23;;;;;;;7.87;4.85;;;;;;;;;;4346214;33;20155;-80
2021/08/12 08:20:49;;;;;;;8.05;4.82;;;;;;;;;;4348622;33;20182;-80
2021/08/12 08:23:14;;;;;;;5.65;4.15;;;;;;;;;;4345563;33;20174;-80
2021/08/12 08:25:39;;;;;;;7.82;4.12;;;;;;;;;;4350365;32;20242;-79
2021/08/12 08:28:05;;;;;;;8.52;3.47;;;;;;;;;;4360493;32;20163;-81
2021/08/12 08:30:32;;;;;;;5.68;3.35;;;;;;;;;;4348166;33;20193;-78
2021/08/12 08:32:57;;;;;;;8.77;3.65;;;;;;;;;;4338443;33;20179;-78
2021/08/12 08:35:25;;;;;;;8.82;4.90;;;;;;;;;;4347598;33;20221;-77
2021/08/12 08:37:51;;;;;;;8.10;4.47;;;;;;;;;;4348490;33;20159;-78
2021/08/12 08:40:16;;;;;;;7.12;4.20;;;;;;;;;;4360837;32;20185;-79
2021/08/12 08:42:42;;;;;;;8.63;4.47;;;;;;;;;;4348113;33;20592;-79
2021/08/12 08:45:08;;;;;;;6.65;3.80;;;;;;;;;;4359716;32;20201;-80
2021/08/12 08:47:34;;;;;;;5.93;4.20;;;;;;;;;;4337602;33;20237;-78
2021/08/12 08:50:01;;;;;;;6.28;4.07;;;;;;;;;;4347445;33;20581;-79
2021/08/12 08:52:29;;;;;;;5.43;3.92;;;;;;;;;;4340189;33;20486;-79
2021/08/12 08:54:54;;;;;;;6.60;4.32;;;;;;;;;;4346406;33;20642;-80
2021/08/12 08:57:20;;;;;;;6.28;3.58;;;;;;;;;;4335470;33;20175;-78
2021/08/12 08:59:48;;;;;;;5.18;3.42;;;;;;;;;;4348196;33;20577;-77
2021/08/12 09:02:14;;;;;;;5.07;3.95;;;;;;;;;;4347603;33;20181;-79
2021/08/12 09:04:40;;;;;;;6.78;3.90;;;;;;;;;;4341827;33;20160;-77
2021/08/12 09:07:07;;;;;;;7.65;3.17;;;;;;;;;;4335953;33;20151;-76
2021/08/12 09:09:34;;;;;;;5.18;3.10;;;;;;;;;;4342809;33;20160;-78
2021/08/12 09:12:00;;;;;;;5.55;3.08;;;;;;;;;;4340776;33;20167;-79
2021/08/12 09:14:30;;;;;;;7.05;3.30;;;;;;;;;;4347424;33;20185;-77
2021/08/12 09:16:55;;;;;;;7.32;2.78;;;;;;;;;;4345757;33;20481;-79
2021/08/12 09:19:23;;;;;;;5.28;2.60;;;;;;;;;;4332923;33;20183;-78
2021/08/12 09:21:49;;;;;;;3.95;2.53;;;;;;;;;;4335707;33;20159;-79
2021/08/12 09:24:14;;;;;;;5.57;2.25;;;;;;;;;;4336799;33;20504;-77
2021/08/12 09:26:49;;;;;;;4.75;2.85;;;;;;;;;;4332843;33;20590;-79
2021/08/12 09:29:29;;;;;;;5.93;2.53;;;;;;;;;;4345391;33;20240;-78
2021/08/12 09:31:55;;;;;;;3.20;2.10;;;;;;;;;;4359606;32;20254;-79
2021/08/12 09:34:20;;;;;;;4.28;2.40;;;;;;;;;;4347419;33;20167;-78
2021/08/12 09:36:46;;;;;;;4.07;2.85;;;;;;;;;;4347202;33;20244;-77
2021/08/12 09:39:22;;;;;;;4.37;2.30;;;;;;;;;;4359437;32;20166;-79
2021/08/12 09:41:50;;;;;;;2.45;1.85;;;;;;;;;;4332800;33;20155;-80
2021/08/12 09:44:34;;;;;;;3.35;2.10;;;;;;;;;;4332676;33;20151;-80
2021/08/12 09:47:00;;;;;;;5.72;2.05;;;;;;;;;;4334940;33;20163;-78
2021/08/12 09:49:34;;;;;;;4.35;2.15;;;;;;;;;;4353654;33;20155;-80
2021/08/12 09:51:59;;;;;;;3.83;2.17;;;;;;;;;;4360682;32;20225;-78
2021/08/12 09:54:33;;;;;;;4.82;2.42;;;;;;;;;;4335370;33;20616;-81
2021/08/12 09:57:12;;;;;;;2.53;1.95;;;;;;;;;;4345703;33;20175;-77
2021/08/12 09:59:45;;;;;;;5.03;2.30;;;;;;;;;;4336646;33;20202;-79
2021/08/12 10:02:11;;;;;;;4.40;2.58;;;;;;;;;;4346666;33;20158;-77
2021/08/12 10:04:37;;;;;;;4.43;2.20;;;;;;;;;;4332259;33;20595;-76
2021/08/12 10:07:02;;;;;;;4.07;2.47;;;;;;;;;;4344722;33;20206;-75
2021/08/12 10:09:38;;;;;;;3.00;2.20;;;;;;;;;;4343867;33;20453;-79
2021/08/12 10:12:03;;;;;;;3.47;2.25;;;;;;;;;;4332360;33;20262;-77
2021/08/12 10:14:29;;;;;;;3.33;2.30;;;;;;;;;;4332565;33;20159;-79
2021/08/12 10:16:57;;;;;;;6.05;2.12;;;;;;;;;;4345324;33;20538;-79
2021/08/12 10:19:23;;;;;;;3.80;2.28;;;;;;;;;;4332026;33;20190;-80
2021/08/12 10:21:49;;;;;;;3.20;2.30;;;;;;;;;;4340717;33;20209;-79
2021/08/12 10:24:15;;;;;;;3.72;2.58;;;;;;;;;;4358770;32;20589;-81
2021/08/12 10:26:44;;;;;;;3.25;2.28;;;;;;;;;;4360884;32;20178;-75
2021/08/12 10:29:14;;;;;;;2.87;2.30;;;;;;;;;;4360075;32;20500;-80
2021/08/12 10:31:43;;;;;;;5.93;2.72;;;;;;;;;;4346424;33;20166;-81
2021/08/12 10:34:08;;;;;;;3.55;2.12;;;;;;;;;;4354175;32;20257;-80
2021/08/12 10:36:33;;;;;;;4.68;2.30;;;;;;;;;;4359913;32;20151;-77
2021/08/12 10:39:00;;;;;;;4.90;2.30;;;;;;;;;;4346998;33;20446;-81
2021/08/12 10:41:25;;;;;;;5.95;2.33;;;;;;;;;;4354221;32;20166;-82
2021/08/12 10:43:52;;;;;;;3.60;2.40;;;;;;;;;;4332127;33;20163;-77
2021/08/12 10:46:30;;;;;;;3.67;2.25;;;;;;;;;;4344199;33;20194;-80
2021/08/12 10:49:15;;;;;;;3.60;2.60;;;;;;;;;;4332213;33;20164;-78
2021/08/12 10:51:50;;;;;;;5.05;2.33;;;;;;;;;;4344547;33;20174;-81
2021/08/12 10:54:17;;;;;;;3.55;2.45;;;;;;;;;;4331962;33;20201;-80
2021/08/12 10:56:43;;;;;;;3.42;2.35;;;;;;;;;;4345349;33;20206;-80
2021/08/12 10:59:08;;;;;;;4.28;2.85;;;;;;;;;;4358767;33;20201;-75
2021/08/12 11:01:35;;;;;;;3.92;2.53;;;;;;;;;;4353499;33;20190;-80
2021/08/12 11:04:03;;;;;;;7.15;3.62;;;;;;;;;;4345159;33;20199;-80
2021/08/12 11:06:54;;;;;;;5.82;3.08;;;;;;;;;;4331436;33;20194;-78
2021/08/12 11:09:20;;;;;;;5.72;2.90;;;;;;;;;;4334698;33;20163;-78
2021/08/12 11:11:45;;;;;;;5.62;3.00;;;;;;;;;;4358191;33;20198;-78
2021/08/12 11:14:12;;;;;;;5.20;2.78;;;;;;;;;;4349217;33;20229;-80
2021/08/12 11:16:40;;;;;;;4.53;3.30;;;;;;;;;;4332037;33;20201;-80
2021/08/12 11:19:06;;;;;;;5.15;3.17;;;;;;;;;;4343887;33;20674;-80
2021/08/12 11:21:32;;;;;;;6.15;3.15;;;;;;;;;;4347429;32;20623;-78
2021/08/12 11:23:58;;;;;;;5.53;3.65;;;;;;;;;;4349767;33;20155;-80
2021/08/12 11:26:23;;;;;;;6.15;4.20;;;;;;;;;;4349240;32;20156;-77
2021/08/12 11:28:50;;;;;;;8.38;4.00;;;;;;;;;;4361846;32;20194;-78
2021/08/12 11:31:18;;;;;;;5.22;3.37;;;;;;;;;;4362367;32;20221;-80
2021/08/12 11:33:45;;;;;;;6.75;3.37;;;;;;;;;;4362456;32;20206;-79
2021/08/12 11:36:11;;;;;;;4.85;3.70;;;;;;;;;;4370927;32;20163;-79
2021/08/12 11:38:40;;;;;;;6.85;3.85;;;;;;;;;;4373758;32;20213;-80
2021/08/12 11:41:06;;;;;;;5.95;3.33;;;;;;;;;;4363006;32;20216;-80
2021/08/12 11:43:31;;;;;;;5.35;3.20;;;;;;;;;;4361252;32;20160;-80
2021/08/12 11:45:56;;;;;;;7.07;4.03;;;;;;;;;;4362881;32;20131;-81
2021/08/12 11:48:29;;;;;;;6.55;3.50;;;;;;;;;;4361332;32;20256;-78
2021/08/12 11:50:58;;;;;;;5.93;3.75;;;;;;;;;;4363208;32;20216;-79
2021/08/12 11:53:37;;;;;;;6.37;4.10;;;;;;;;;;4361276;33;20226;-80
2021/08/12 11:56:17;;;;;;;6.65;4.15;;;;;;;;;;4362292;32;20195;-79
2021/08/12 11:58:44;;;;;;;6.35;4.40;;;;;;;;;;4361311;32;20232;-80
2021/08/12 12:01:13;;;;;;;4.43;4.00;;;;;;;;;;4361875;32;20196;-80
2021/08/12 12:03:38;;;;;;;7.37;4.50;;;;;;;;;;4360847;33;20198;-79
2021/08/12 12:06:04;;;;;;;6.22;3.90;;;;;;;;;;4360882;32;20160;-80
2021/08/12 12:08:29;;;;;;;10.20;4.28;;;;;;;;;;4362235;32;20143;-80
2021/08/12 12:11:05;;;;;;;5.37;3.60;;;;;;;;;;4373407;32;20584;-80
2021/08/12 12:13:31;;;;;;;6.97;4.03;;;;;;;;;;4348740;33;20745;-80
2021/08/12 12:15:56;;;;;;;7.37;4.95;;;;;;;;;;4348443;33;20238;-81
2021/08/12 12:18:48;;;;;;;7.00;5.05;;;;;;;;;;4348625;33;20190;-79
2021/08/12 12:21:14;;;;;;;6.32;4.70;;;;;;;;;;4361957;32;20189;-81
2021/08/12 12:23:41;;;;;;;7.10;4.62;;;;;;;;;;4348886;33;20226;-79
2021/08/12 12:26:07;;;;;;;6.50;4.57;;;;;;;;;;4348188;33;20206;-76
2021/08/12 12:28:39;;;;;;;5.25;4.10;;;;;;;;;;4348042;33;20627;-79
2021/08/12 12:31:23;;;;;;;5.80;3.75;;;;;;;;;;4346794;33;20185;-79
2021/08/12 12:33:58;;;;;;;5.53;4.20;;;;;;;;;;4361555;32;20147;-77
2021/08/12 12:36:23;;;;;;;6.15;4.28;;;;;;;;;;4340330;33;20205;-79
2021/08/12 12:38:50;;;;;;;7.07;4.68;;;;;;;;;;4350764;32;20581;-80
2021/08/12 12:41:15;;;;;;;7.70;4.45;;;;;;;;;;4344217;33;20235;-80
2021/08/12 12:43:40;;;;;;;8.00;5.22;;;;;;;;;;4360436;32;20159;-79
2021/08/12 12:46:06;;;;;;;6.50;4.40;;;;;;;;;;4361161;32;20159;-79
2021/08/12 12:48:35;;;;;;;8.13;5.25;;;;;;;;;;4344683;32;20160;-78
2021/08/12 12:51:02;;;;;;;8.05;5.18;;;;;;;;;;4333423;33;20233;-76
2021/08/12 12:53:34;;;;;;;8.75;5.20;;;;;;;;;;4343236;32;20159;-79
2021/08/12 12:56:00;;;;;;;6.45;4.40;;;;;;;;;;4346469;33;20182;-80
2021/08/12 12:58:39;;;;;;;8.13;4.75;;;;;;;;;;4335662;33;20179;-80
2021/08/12 13:01:09;;;;;;;7.37;5.12;;;;;;;;;;4334874;33;20182;-79
2021/08/12 13:03:38;;;;;;;8.75;4.50;;;;;;;;;;4343425;32;20482;-77
2021/08/12 13:06:04;;;;;;;6.30;4.70;;;;;;;;;;4333828;33;20168;-74
2021/08/12 13:08:40;;;;;;;6.80;5.57;;;;;;;;;;4354833;32;20163;-75
2021/08/12 13:11:06;;;;;;;6.40;4.97;;;;;;;;;;4341928;33;20163;-76
2021/08/12 13:13:31;;;;;;;6.43;4.72;;;;;;;;;;4332877;33;20172;-79
2021/08/12 13:15:56;;;;;;;8.60;5.00;;;;;;;;;;4332956;33;20529;-74
2021/08/12 13:18:22;;;;;;;12.57;4.75;;;;;;;;;;4346196;33;20600;-76
2021/08/12 13:20:50;;;;;;;7.37;4.83;;;;;;;;;;4345420;33;20185;-79
2021/08/12 13:23:15;;;;;;;6.70;5.03;;;;;;;;;;4333468;33;20252;-76
2021/08/12 13:25:53;;;;;;;6.40;4.60;;;;;;;;;;4332607;33;20225;-78
2021/08/12 13:28:30;;;;;;;7.37;5.00;;;;;;;;;;4343034;33;20159;-76
2021/08/12 13:31:12;;;;;;;7.00;4.93;;;;;;;;;;4347753;33;20182;-78
2021/08/12 13:33:37;;;;;;;8.43;5.15;;;;;;;;;;4347581;33;20205;-77
2021/08/12 13:36:03;;;;;;;7.27;4.60;;;;;;;;;;4359628;33;20164;-80
2021/08/12 13:38:28;;;;;;;7.32;5.22;;;;;;;;;;4347423;33;20673;-78
2021/08/12 13:40:55;;;;;;;8.27;5.30;;;;;;;;;;4347247;33;20225;-78
2021/08/12 13:43:20;;;;;;;8.23;5.20;;;;;;;;;;4346900;32;20182;-79
2021/08/12 13:45:46;;;;;;;7.60;5.30;;;;;;;;;;4358931;33;20167;-79
2021/08/12 13:48:11;;;;;;;7.03;5.70;;;;;;;;;;4359653;32;20302;-79
2021/08/12 13:50:36;;;;;;;8.27;5.25;;;;;;;;;;4359411;32;20286;-77
2021/08/12 13:53:01;;;;;;;10.30;5.82;;;;;;;;;;4359473;32;20286;-74
2021/08/12 13:55:27;;;;;;;8.85;5.72;;;;;;;;;;4359420;32;20490;-79
2021/08/12 13:57:54;;;;;;;8.93;4.90;;;;;;;;;;4349002;32;20636;-76
2021/08/12 14:00:22;;;;;;;7.87;4.87;;;;;;;;;;4360570;32;20239;-78
2021/08/12 14:02:47;;;;;;;12.90;5.20;;;;;;;;;;4346756;33;20183;-77
2021/08/12 14:05:13;;;;;;;10.67;5.33;;;;;;;;;;4347175;33;20159;-78
2021/08/12 14:07:38;;;;;;;6.82;4.90;;;;;;;;;;4361187;32;20534;-75
2021/08/12 14:10:03;;;;;;;6.57;5.05;;;;;;;;;;4359107;32;20163;-78
2021/08/12 14:12:28;;;;;;;8.43;5.60;;;;;;;;;;4346466;33;20217;-74
2021/08/12 14:14:54;;;;;;;8.93;6.40;;;;;;;;;;4360363;32;20139;-77
2021/08/12 14:17:19;;;;;;;8.15;5.87;;;;;;;;;;4346737;33;20163;-78
2021/08/12 14:19:46;;;;;;;7.28;5.25;;;;;;;;;;4346367;33;20547;-79
2021/08/12 14:22:11;;;;;;;7.00;4.75;;;;;;;;;;4358743;32;20250;-76
2021/08/12 14:24:36;;;;;;;7.05;5.22;;;;;;;;;;4347065;32;20159;-78
2021/08/12 14:27:05;;;;;;;7.87;5.77;;;;;;;;;;4359073;33;20763;-79
2021/08/12 14:29:31;;;;;;;8.70;6.03;;;;;;;;;;4346703;33;20259;-77